Time;durP1;ratioP1;P1;durP2;ratioP2;P2;SDS_P1;SDS_P2;PMS_P1;PMS_P2;Temp;Humidity;BMP_temperature;BMP_pressure;BME280_temperature;BME280_humidity;BME280_pressure;Samples;Min_cycle;Max_cycle;Signal;HPM_P1;HPM_P2
2022/01/04 00:01:24;;;;;;;;;;;;;;;7.67;100.00;97404.25;1651835;85;24569;-90
2022/01/04 00:03:50;;;;;;;;;;;;;;;7.64;100.00;97394.55;1652581;85;20259;-89
2022/01/04 00:06:16;;;;;;;;;;;;;;;7.63;100.00;97393.71;1651805;85;24685;-89
2022/01/04 00:08:42;;;;;;;;;;;;;;;7.62;100.00;97388.61;1651933;85;21990;-89
2022/01/04 00:11:17;;;;;;;;;;;;;;;7.60;100.00;97393.92;1652007;85;26111;-89
2022/01/04 00:13:43;;;;;;;;;;;;;;;7.56;100.00;97375.11;1626256;87;24476;-89
2022/01/04 00:16:18;;;;;;;;;;;;;;;7.53;100.00;97367.50;1633902;87;20258;-89
2022/01/04 00:18:46;;;;;;;;;;;;;;;7.50;100.00;97365.61;1651628;85;24608;-89
2022/01/04 00:21:12;;;;;;;;;;;;;;;7.43;100.00;97360.50;1646147;85;23906;-89
2022/01/04 00:23:41;;;;;;;;;;;;;;;7.39;100.00;97352.56;1585760;88;26093;-90
2022/01/04 00:26:07;;;;;;;;;;;;;;;7.36;100.00;97347.13;1594479;89;24457;-86
2022/01/04 00:28:33;;;;;;;;;;;;;;;7.35;100.00;97349.84;1587833;89;20223;-87
2022/01/04 00:30:59;;;;;;;;;;;;;;;7.34;100.00;97340.37;1586663;88;24618;-87
2022/01/04 00:33:25;;;;;;;;;;;;;;;7.32;100.00;97339.17;1589036;90;21842;-86
2022/01/04 00:35:51;;;;;;;;;;;;;;;7.37;100.00;97335.75;1594170;90;25819;-87
2022/01/04 00:38:17;;;;;;;;;;;;;;;7.40;100.00;97330.81;1587821;90;24528;-89
2022/01/04 00:40:59;;;;;;;;;;;;;;;7.50;100.00;97326.09;1584261;89;20216;-93
2022/01/04 00:43:25;;;;;;;;;;;;;;;7.62;100.00;97331.33;1588781;89;24574;-89
2022/01/04 00:46:00;;;;;;;;;;;;;;;7.60;100.00;97328.00;1589618;89;22715;-90
2022/01/04 00:50:54;;;;;;;;;;;;;;;7.70;100.00;97305.05;1597734;89;24721;-90
2022/01/04 00:53:21;;;;;;;;;;;;;;;7.72;100.00;97308.38;1592596;89;20550;-89
2022/01/04 00:55:47;;;;;;;;;;;;;;;7.73;100.00;97307.91;1594466;89;24548;-90
2022/01/04 00:58:17;;;;;;;;;;;;;;;7.77;100.00;97305.42;1598966;89;22010;-86
2022/01/04 01:00:43;;;;;;;;;;;;;;;7.80;100.00;97311.71;1601429;88;26097;-90
2022/01/04 01:03:09;;;;;;;;;;;;;;;7.79;100.00;97308.28;1590118;89;24562;-86
2022/01/04 01:05:41;;;;;;;;;;;;;;;7.68;100.00;97305.66;1587359;89;20486;-90
2022/01/04 01:08:13;;;;;;;;;;;;;;;7.65;100.00;97300.67;1592260;89;24702;-94
2022/01/04 01:10:42;;;;;;;;;;;;;;;7.69;100.00;97303.89;1594909;89;22019;-87
2022/01/04 01:13:07;;;;;;;;;;;;;;;7.73;100.00;97290.52;1594346;89;26100;-87
2022/01/04 01:15:35;;;;;;;;;;;;;;;7.69;100.00;97285.16;1593626;89;24534;-90
2022/01/04 01:21:23;;;;;;;;;;;;;;;7.49;100.00;97274.14;1599489;88;20684;-90
2022/01/04 01:23:49;;;;;;;;;;;;;;;7.54;100.00;97262.91;1599625;89;20423;-89
2022/01/04 01:26:15;;;;;;;;;;;;;;;7.54;100.00;97255.92;1609191;88;26030;-90
2022/01/04 01:28:42;;;;;;;;;;;;;;;7.62;100.00;97250.14;1608819;88;20289;-90
2022/01/04 01:31:08;;;;;;;;;;;;;;;7.63;100.00;97241.86;1592604;87;20300;-87
2022/01/04 01:33:34;;;;;;;;;;;;;;;7.63;100.00;97239.27;1569571;91;24535;-86
2022/01/04 01:36:09;;;;;;;;;;;;;;;7.70;100.00;97234.74;1570055;90;21973;-91
2022/01/04 01:38:35;;;;;;;;;;;;;;;7.73;100.00;97231.92;1569943;90;25999;-90
2022/01/04 01:41:01;;;;;;;;;;;;;;;7.69;100.00;97221.36;1569972;90;24527;-91
2022/01/04 01:43:29;;;;;;;;;;;;;;;7.65;100.00;97226.94;1570011;91;20290;-90
2022/01/04 01:45:55;;;;;;;;;;;;;;;7.59;100.00;97217.81;1569574;90;24639;-89
2022/01/04 01:48:22;;;;;;;;;;;;;;;7.56;100.00;97219.37;1570158;90;22012;-86
2022/01/04 01:50:58;;;;;;;;;;;;;;;7.49;100.00;97217.70;1569970;90;25885;-90
2022/01/04 01:53:25;;;;;;;;;;;;;;;7.40;100.00;97208.02;1570316;90;24409;-89
2022/01/04 01:55:51;;;;;;;;;;;;;;;7.39;100.00;97208.95;1568401;90;20483;-89
2022/01/04 01:58:17;;;;;;;;;;;;;;;7.36;100.00;97207.90;1570117;90;24657;-86
2022/01/04 02:00:43;;;;;;;;;;;;;;;7.39;100.00;97201.61;1570108;89;21941;-85
2022/01/04 02:03:12;;;;;;;;;;;;;;;7.46;100.00;97204.94;1573960;89;26234;-91
2022/01/04 02:05:40;;;;;;;;;;;;;;;7.52;100.00;97197.14;1572168;90;24582;-86
2022/01/04 02:08:08;;;;;;;;;;;;;;;7.59;100.00;97194.39;1551227;91;20281;-86
2022/01/04 02:10:35;;;;;;;;;;;;;;;7.64;100.00;97183.64;1572240;89;24681;-89
2022/01/04 02:13:01;;;;;;;;;;;;;;;7.66;100.00;97179.95;1572949;89;22066;-89
2022/01/04 02:15:30;;;;;;;;;;;;;;;7.66;100.00;97177.35;1571830;89;26913;-85
2022/01/04 02:17:56;;;;;;;;;;;;;;;7.67;100.00;97175.58;1571988;89;24458;-90
2022/01/04 02:20:28;;;;;;;;;;;;;;;7.65;100.00;97168.35;1571918;89;20237;-92
2022/01/04 02:22:57;;;;;;;;;;;;;;;7.65;100.00;97172.26;1591013;88;24641;-92
2022/01/04 02:25:23;;;;;;;;;;;;;;;7.59;100.00;97170.95;1605890;87;22267;-88
2022/01/04 02:27:56;;;;;;;;;;;;;;;7.61;100.00;97176.05;1608081;88;26637;-86
2022/01/04 02:30:22;;;;;;;;;;;;;;;7.60;100.00;97168.72;1618135;88;24542;-85
2022/01/04 02:32:49;;;;;;;;;;;;;;;7.61;100.00;97163.03;1593055;88;20281;-86
2022/01/04 02:35:16;;;;;;;;;;;;;;;7.63;100.00;97164.59;1616959;88;24623;-89
2022/01/04 02:37:42;;;;;;;;;;;;;;;7.66;100.00;97156.52;1622630;87;22037;-88
2022/01/04 02:40:10;;;;;;;;;;;;;;;7.68;100.00;97159.02;1620202;87;26167;-89
2022/01/04 02:42:36;;;;;;;;;;;;;;;7.71;100.00;97165.27;1620910;87;24502;-88
2022/01/04 02:45:03;;;;;;;;;;;;;;;7.72;100.00;97161.25;1617883;88;20497;-88
2022/01/04 02:47:30;;;;;;;;;;;;;;;7.73;100.00;97159.01;1618160;88;25379;-88
2022/01/04 02:49:56;;;;;;;;;;;;;;;7.76;100.00;97163.13;1620981;87;22046;-88
2022/01/04 02:52:22;;;;;;;;;;;;;;;7.78;100.00;97158.17;1622198;88;25977;-88
2022/01/04 02:54:48;;;;;;;;;;;;;;;7.81;100.00;97164.42;1609106;89;24446;-88
2022/01/04 02:57:15;;;;;;;;;;;;;;;7.81;100.00;97151.41;1610161;87;20282;-87
2022/01/04 02:59:41;;;;;;;;;;;;;;;7.84;100.00;97152.48;1626552;86;24577;-88
2022/01/04 03:02:09;;;;;;;;;;;;;;;7.86;100.00;97145.82;1614445;88;21922;-88
2022/01/04 03:04:35;;;;;;;;;;;;;;;7.87;100.00;97148.78;1614619;88;26907;-88
2022/01/04 03:07:02;;;;;;;;;;;;;;;7.87;100.00;97135.29;1615002;88;24720;-88
2022/01/04 03:09:28;;;;;;;;;;;;;;;7.90;100.00;97138.14;1614955;88;20305;-88
2022/01/04 03:11:55;;;;;;;;;;;;;;;7.91;100.00;97124.97;1591390;88;24578;-88
2022/01/04 03:14:21;;;;;;;;;;;;;;;7.94;100.00;97126.05;1618147;87;21981;-88
2022/01/04 03:16:51;;;;;;;;;;;;;;;7.95;100.00;97116.45;1601795;88;27158;-89
2022/01/04 03:19:17;;;;;;;;;;;;;;;7.97;100.00;97111.46;1617436;88;24549;-87
2022/01/04 03:21:45;;;;;;;;;;;;;;;7.97;100.00;97117.97;1611594;88;20297;-86
2022/01/04 03:24:13;;;;;;;;;;;;;;;8.00;100.00;97115.61;1597802;88;25181;-87
2022/01/04 03:26:39;;;;;;;;;;;;;;;8.01;100.00;97108.62;1590393;89;21985;-86
2022/01/04 03:29:06;;;;;;;;;;;;;;;8.02;100.00;97108.98;1601636;89;25996;-93
2022/01/04 03:31:38;;;;;;;;;;;;;;;8.02;100.00;97107.68;1600924;89;24465;-93
2022/01/04 03:34:05;;;;;;;;;;;;;;;8.03;100.00;97104.09;1602426;87;20230;-89
2022/01/04 03:36:31;;;;;;;;;;;;;;;8.02;100.00;97099.36;1594210;89;24588;-87
2022/01/04 03:38:58;;;;;;;;;;;;;;;8.05;100.00;97095.70;1596240;89;21802;-87
2022/01/04 03:41:25;;;;;;;;;;;;;;;8.04;100.00;97092.27;1596281;89;25992;-86
2022/01/04 03:43:51;;;;;;;;;;;;;;;8.04;100.00;97088.35;1595678;89;24458;-87
2022/01/04 03:46:23;;;;;;;;;;;;;;;8.05;100.00;97084.80;1596921;89;20329;-87
2022/01/04 03:48:49;;;;;;;;;;;;;;;8.06;100.00;97090.84;1598655;89;24616;-87
2022/01/04 03:51:17;;;;;;;;;;;;;;;8.06;100.00;97083.86;1597479;89;22995;-87
2022/01/04 03:53:43;;;;;;;;;;;;;;;8.06;100.00;97075.21;1600127;88;26021;-87
2022/01/04 03:56:09;;;;;;;;;;;;;;;8.07;100.00;97079.48;1596047;89;24438;-91
2022/01/04 03:58:37;;;;;;;;;;;;;;;8.09;100.00;97079.69;1601795;89;20248;-90
2022/01/04 04:01:04;;;;;;;;;;;;;;;8.07;100.00;97072.48;1601763;89;24636;-87
2022/01/04 04:03:30;;;;;;;;;;;;;;;8.10;100.00;97067.48;1600705;89;21811;-88
2022/01/04 04:06:00;;;;;;;;;;;;;;;8.11;100.00;97079.57;1597491;89;25939;-93
2022/01/04 04:08:26;;;;;;;;;;;;;;;8.12;100.00;97082.53;1597874;89;24428;-86
2022/01/04 04:10:52;;;;;;;;;;;;;;;8.14;100.00;97080.13;1597187;88;20179;-87
2022/01/04 04:13:18;;;;;;;;;;;;;;;8.15;100.00;97077.05;1597780;88;24537;-86
2022/01/04 04:15:44;;;;;;;;;;;;;;;8.14;100.00;97081.91;1601008;89;22099;-87
2022/01/04 04:18:13;;;;;;;;;;;;;;;8.15;100.00;97070.06;1598413;88;26092;-86
2022/01/04 04:20:40;;;;;;;;;;;;;;;8.16;100.00;97075.64;1599362;88;24766;-87
2022/01/04 04:23:06;;;;;;;;;;;;;;;8.17;100.00;97075.99;1593273;87;20308;-86
2022/01/04 04:25:37;;;;;;;;;;;;;;;8.17;100.00;97070.78;1578605;90;24596;-95
2022/01/04 04:28:03;;;;;;;;;;;;;;;8.17;100.00;97064.74;1580320;90;22038;-85
2022/01/04 04:30:29;;;;;;;;;;;;;;;8.17;100.00;97058.23;1579438;89;25852;-86
2022/01/04 04:32:58;;;;;;;;;;;;;;;8.17;100.00;97056.45;1579954;89;24484;-93
2022/01/04 04:35:25;;;;;;;;;;;;;;;8.16;100.00;97056.56;1577908;90;20552;-90
2022/01/04 04:37:51;;;;;;;;;;;;;;;8.16;100.00;97059.17;1569772;90;24588;-89
2022/01/04 04:40:17;;;;;;;;;;;;;;;8.16;100.00;97049.58;1571274;89;22053;-88
2022/01/04 04:42:45;;;;;;;;;;;;;;;8.17;100.00;97043.89;1570225;91;26170;-89
2022/01/04 04:45:11;;;;;;;;;;;;;;;8.17;100.00;97056.45;1579242;90;24425;-90
2022/01/04 04:47:37;;;;;;;;;;;;;;;8.19;100.00;97048.48;1589326;88;20649;-89
2022/01/04 04:50:04;;;;;;;;;;;;;;;8.19;100.00;97046.70;1586433;89;25180;-89
2022/01/04 04:52:30;;;;;;;;;;;;;;;8.17;100.00;97042.59;1581930;89;21972;-90
2022/01/04 04:54:57;;;;;;;;;;;;;;;8.14;100.00;97051.95;1587357;89;26053;-90
2022/01/04 04:57:23;;;;;;;;;;;;;;;8.13;100.00;97049.02;1575385;90;24411;-90
2022/01/04 04:59:49;;;;;;;;;;;;;;;8.12;100.00;97044.75;1569266;89;20268;-89
2022/01/04 05:02:15;;;;;;;;;;;;;;;8.12;100.00;97033.02;1594603;89;24510;-90
2022/01/04 05:04:42;;;;;;;;;;;;;;;8.10;100.00;97028.41;1601126;88;22018;-90
2022/01/04 05:07:15;;;;;;;;;;;;;;;8.10;100.00;97038.83;1587171;90;26002;-90
2022/01/04 05:09:45;;;;;;;;;;;;;;;8.09;100.00;97031.48;1590741;89;24625;-89
2022/01/04 05:12:11;;;;;;;;;;;;;;;8.06;100.00;97026.54;1615121;87;20327;-89
2022/01/04 05:14:39;;;;;;;;;;;;;;;8.04;100.00;97018.01;1581567;88;24519;-90
2022/01/04 05:17:05;;;;;;;;;;;;;;;8.01;100.00;97007.86;1574119;89;22212;-90
2022/01/04 05:19:31;;;;;;;;;;;;;;;8.00;100.00;97015.31;1572071;90;26234;-89
2022/01/04 05:21:57;;;;;;;;;;;;;;;7.97;100.00;97020.28;1572203;90;20293;-90
2022/01/04 05:24:23;;;;;;;;;;;;;;;7.95;100.00;97027.89;1595140;87;20327;-89
2022/01/04 05:26:49;;;;;;;;;;;;;;;7.93;100.00;97021.50;1601920;89;24665;-89
2022/01/04 05:29:15;;;;;;;;;;;;;;;7.95;100.00;97023.52;1603300;88;22765;-88
2022/01/04 05:31:41;;;;;;;;;;;;;;;7.93;100.00;97014.16;1603993;88;26832;-89
2022/01/04 05:34:07;;;;;;;;;;;;;;;7.94;100.00;97010.60;1603287;88;24450;-89
2022/01/04 05:36:35;;;;;;;;;;;;;;;7.93;100.00;97006.34;1607770;87;20321;-89
2022/01/04 05:39:01;;;;;;;;;;;;;;;7.92;100.00;97007.28;1605963;87;25263;-86
2022/01/04 05:41:27;;;;;;;;;;;;;;;7.92;100.00;96999.00;1603953;89;20343;-86
2022/01/04 05:43:53;;;;;;;;;;;;;;;7.92;100.00;96994.27;1605496;89;26065;-90
2022/01/04 05:46:19;;;;;;;;;;;;;;;7.92;100.00;96989.05;1608997;89;24528;-89
2022/01/04 05:48:47;;;;;;;;;;;;;;;7.93;100.00;96982.90;1607799;89;20211;-89
2022/01/04 05:51:13;;;;;;;;;;;;;;;7.93;100.00;96981.13;1610171;88;24561;-89
2022/01/04 05:53:39;;;;;;;;;;;;;;;7.94;100.00;96979.34;1622728;86;22547;-89
2022/01/04 05:56:05;;;;;;;;;;;;;;;7.92;100.00;96970.34;1609301;87;26132;-89
2022/01/04 05:58:31;;;;;;;;;;;;;;;7.92;100.00;96965.14;1608274;87;25358;-89
2022/01/04 06:00:58;;;;;;;;;;;;;;;7.93;100.00;96960.76;1610480;87;20656;-88
2022/01/04 06:03:24;;;;;;;;;;;;;;;7.94;100.00;96958.51;1607452;87;24634;-88
2022/01/04 06:05:51;;;;;;;;;;;;;;;7.96;100.00;96950.10;1608301;87;22067;-89
2022/01/04 06:08:18;;;;;;;;;;;;;;;7.95;100.00;96948.45;1612329;86;26125;-86
2022/01/04 06:10:51;;;;;;;;;;;;;;;7.93;100.00;96946.44;1610255;87;24425;-86
2022/01/04 06:15:58;;;;;;;;;;;;;;;7.92;100.00;96948.68;1631723;86;24768;-88
2022/01/04 06:18:24;;;;;;;;;;;;;;;7.90;100.00;96936.28;1585097;88;21916;-89
2022/01/04 06:20:54;;;;;;;;;;;;;;;7.89;100.00;96926.34;1607811;87;26713;-89
2022/01/04 06:23:20;;;;;;;;;;;;;;;7.90;100.00;96928.47;1605167;88;24506;-86
2022/01/04 06:25:46;;;;;;;;;;;;;;;7.94;100.00;96929.86;1588415;88;20287;-86
2022/01/04 06:28:18;;;;;;;;;;;;;;;7.97;100.00;96930.41;1587832;90;24202;-93
2022/01/04 06:30:44;;;;;;;;;;;;;;;7.99;100.00;96934.20;1607838;87;22241;-86
2022/01/04 06:33:10;;;;;;;;;;;;;;;7.99;100.00;96930.30;1580626;89;26046;-90
2022/01/04 06:35:43;;;;;;;;;;;;;;;7.95;100.00;96931.04;1574515;90;24497;-92
2022/01/04 06:38:12;;;;;;;;;;;;;;;8.01;100.00;96932.78;1573228;90;20543;-89
2022/01/04 06:40:38;;;;;;;;;;;;;;;8.03;100.00;96928.25;1590873;88;25188;-90
2022/01/04 06:43:04;;;;;;;;;;;;;;;8.02;100.00;96933.14;1588652;90;22150;-90
2022/01/04 06:45:30;;;;;;;;;;;;;;;7.92;100.00;96935.66;1586515;90;26210;-93
2022/01/04 06:47:57;;;;;;;;;;;;;;;7.90;100.00;96925.39;1586140;89;25105;-89
2022/01/04 06:50:23;;;;;;;;;;;;;;;7.89;100.00;96907.28;1588196;89;20346;-89
2022/01/04 06:52:49;;;;;;;;;;;;;;;7.88;100.00;96905.15;1582812;88;24599;-88
2022/01/04 06:55:16;;;;;;;;;;;;;;;7.89;100.00;96894.25;1584619;89;21942;-87
2022/01/04 06:57:47;;;;;;;;;;;;;;;7.87;100.00;96895.67;1585978;88;26029;-86
2022/01/04 07:00:16;;;;;;;;;;;;;;;7.87;100.00;96890.94;1583649;89;24578;-86
2022/01/04 07:02:42;;;;;;;;;;;;;;;7.85;100.00;96887.66;1586381;89;20249;-89
2022/01/04 07:05:08;;;;;;;;;;;;;;;7.87;100.00;96878.75;1611996;86;20767;-86
2022/01/04 07:07:35;;;;;;;;;;;;;;;7.89;100.00;96872.94;1579527;87;22049;-86
2022/01/04 07:10:01;;;;;;;;;;;;;;;7.83;100.00;96868.25;1576903;88;26056;-95
2022/01/04 07:12:36;;;;;;;;;;;;;;;7.81;100.00;96867.53;1575043;89;24423;-94
2022/01/04 07:15:03;;;;;;;;;;;;;;;7.81;100.00;96871.44;1594292;89;20525;-88
2022/01/04 07:17:29;;;;;;;;;;;;;;;7.81;100.00;96863.63;1600067;87;24508;-89
2022/01/04 07:19:55;;;;;;;;;;;;;;;7.84;100.00;96857.36;1607354;87;21956;-89
2022/01/04 07:22:25;;;;;;;;;;;;;;;7.87;100.00;96855.78;1601304;89;21521;-89
2022/01/04 07:24:51;;;;;;;;;;;;;;;7.88;100.00;96856.14;1627189;87;24429;-89
2022/01/04 07:27:23;;;;;;;;;;;;;;;7.92;100.00;96846.63;1643190;85;20327;-89
2022/01/04 07:29:49;;;;;;;;;;;;;;;7.91;100.00;96831.95;1638007;87;24538;-89
2022/01/04 07:32:21;;;;;;;;;;;;;;;7.89;100.00;96835.66;1637099;86;20255;-89
2022/01/04 07:34:47;;;;;;;;;;;;;;;7.87;100.00;96832.34;1637298;86;25968;-89
2022/01/04 07:37:13;;;;;;;;;;;;;;;7.93;100.00;96827.45;1642266;85;24473;-89
2022/01/04 07:39:39;;;;;;;;;;;;;;;7.97;100.00;96830.13;1610067;87;20251;-89
2022/01/04 07:42:06;;;;;;;;;;;;;;;8.00;100.00;96831.66;1624760;88;24593;-90
2022/01/04 07:44:32;;;;;;;;;;;;;;;7.97;100.00;96827.52;1639259;86;22034;-89
2022/01/04 07:46:58;;;;;;;;;;;;;;;8.02;100.00;96832.84;1638015;86;26066;-89
2022/01/04 07:49:25;;;;;;;;;;;;;;;8.01;100.00;96822.90;1637356;86;24468;-90
2022/01/04 07:51:51;;;;;;;;;;;;;;;8.02;100.00;96814.10;1608566;89;20303;-90
2022/01/04 07:54:17;;;;;;;;;;;;;;;8.06;100.00;96817.29;1639761;86;24540;-89
2022/01/04 07:56:43;;;;;;;;;;;;;;;8.09;100.00;96813.11;1629160;87;21996;-89
2022/01/04 07:59:13;;;;;;;;;;;;;;;8.13;100.00;96804.89;1628185;86;25382;-94
2022/01/04 08:01:39;;;;;;;;;;;;;;;8.16;100.00;96789.48;1622144;88;24673;-94
2022/01/04 08:04:05;;;;;;;;;;;;;;;8.17;100.00;96785.45;1625290;88;20279;-94
2022/01/04 08:06:31;;;;;;;;;;;;;;;8.21;100.00;96782.92;1628285;87;24675;-94
2022/01/04 08:08:57;;;;;;;;;;;;;;;8.27;100.00;96788.08;1625596;87;21959;-93
2022/01/04 08:11:25;;;;;;;;;;;;;;;8.27;100.00;96780.27;1625028;88;26182;-94
2022/01/04 08:13:53;;;;;;;;;;;;;;;8.28;100.00;96783.22;1628932;88;24469;-93
2022/01/04 08:16:22;;;;;;;;;;;;;;;8.27;100.00;96782.39;1629867;88;20252;-93
2022/01/04 08:19:03;;;;;;;;;;;;;;;8.27;100.00;96768.06;1625193;88;24722;-93
2022/01/04 08:21:35;;;;;;;;;;;;;;;8.29;100.00;96760.91;1629428;87;22075;-93
2022/01/04 08:24:01;;;;;;;;;;;;;;;8.30;100.00;96757.86;1626839;87;26067;-93
2022/01/04 08:26:30;;;;;;;;;;;;;;;8.31;100.00;96753.00;1591988;88;24470;-93
2022/01/04 08:28:56;;;;;;;;;;;;;;;8.31;100.00;96742.09;1613720;87;20269;-93
2022/01/04 08:31:22;;;;;;;;;;;;;;;8.31;100.00;96736.89;1582331;89;24498;-93
2022/01/04 08:33:48;;;;;;;;;;;;;;;8.33;100.00;96732.85;1575964;89;21911;-93
2022/01/04 08:36:16;;;;;;;;;;;;;;;8.35;100.00;96730.44;1592127;89;20945;-93
2022/01/04 08:38:51;;;;;;;;;;;;;;;8.34;100.00;96714.95;1579503;89;24535;-92
2022/01/04 08:41:17;;;;;;;;;;;;;;;8.27;100.00;96713.81;1600033;87;20731;-92
2022/01/04 08:43:50;;;;;;;;;;;;;;;8.27;100.00;96709.91;1577751;89;24654;-92
2022/01/04 08:46:17;;;;;;;;;;;;;;;8.23;100.00;96702.84;1599586;88;22236;-91
2022/01/04 08:48:43;;;;;;;;;;;;;;;8.27;100.00;96695.09;1597369;88;25998;-92
2022/01/04 08:51:09;;;;;;;;;;;;;;;8.29;100.00;96695.76;1597843;89;20263;-87
2022/01/04 08:53:35;;;;;;;;;;;;;;;8.32;100.00;96689.50;1602340;88;20460;-88
2022/01/04 08:56:04;;;;;;;;;;;;;;;8.36;100.00;96683.05;1603216;88;24811;-88
2022/01/04 08:58:30;;;;;;;;;;;;;;;8.37;100.00;96679.48;1606837;88;22802;-88
2022/01/04 09:00:56;;;;;;;;;;;;;;;8.43;100.00;96673.73;1597563;88;26127;-88
2022/01/04 09:03:24;;;;;;;;;;;;;;;8.49;100.00;96679.70;1610431;88;24418;-89
2022/01/04 09:05:51;;;;;;;;;;;;;;;8.50;100.00;96671.41;1605620;88;20280;-85
2022/01/04 09:08:17;;;;;;;;;;;;;;;8.53;100.00;96678.94;1599378;88;24646;-85
2022/01/04 09:10:43;;;;;;;;;;;;;;;8.56;100.00;96676.90;1600155;88;20266;-85
2022/01/04 09:13:16;;;;;;;;;;;;;;;8.59;100.00;96671.39;1573414;88;26701;-84
2022/01/04 09:20:53;;;;;;;;;;;;;;;8.68;100.00;96660.13;1599567;87;24782;-84
2022/01/04 09:23:21;;;;;;;;;;;;;;;8.69;100.00;96659.17;1605850;87;22050;-85
2022/01/04 09:25:47;;;;;;;;;;;;;;;8.70;100.00;96643.88;1603500;87;26185;-85
2022/01/04 09:28:14;;;;;;;;;;;;;;;8.70;100.00;96638.66;1607212;88;25356;-86
2022/01/04 09:30:41;;;;;;;;;;;;;;;8.68;100.00;96637.96;1611168;87;20322;-88
2022/01/04 09:33:13;;;;;;;;;;;;;;;8.68;100.00;96636.66;1614774;87;24533;-93
2022/01/04 09:35:41;;;;;;;;;;;;;;;8.67;100.00;96621.17;1608799;88;22256;-92
2022/01/04 09:38:07;;;;;;;;;;;;;;;8.69;100.00;96615.31;1611949;88;25979;-92
2022/01/04 09:40:42;;;;;;;;;;;;;;;8.70;100.00;96616.97;1608257;87;24497;-93
2022/01/04 09:43:08;;;;;;;;;;;;;;;8.70;100.00;96608.67;1636352;86;20529;-86
2022/01/04 09:45:35;;;;;;;;;;;;;;;8.75;100.00;96601.72;1624237;87;24547;-85
2022/01/04 09:48:01;;;;;;;;;;;;;;;8.79;100.00;96600.47;1594044;89;22102;-88
2022/01/04 09:50:27;;;;;;;;;;;;;;;8.78;100.00;96586.60;1608156;88;26073;-88
2022/01/04 09:52:55;;;;;;;;;;;;;;;8.81;100.00;96577.20;1606769;88;20887;-89
2022/01/04 09:55:21;;;;;;;;;;;;;;;8.84;100.00;96568.77;1632634;86;20187;-89
2022/01/04 09:57:55;;;;;;;;;;;;;;;8.87;100.00;96569.30;1621130;88;24620;-94
2022/01/04 10:00:28;;;;;;;;;;;;;;;8.91;100.00;96561.52;1628895;87;21878;-93
2022/01/04 10:02:56;;;;;;;;;;;;;;;8.95;100.00;96555.53;1631661;88;26028;-90
2022/01/04 10:05:23;;;;;;;;;;;;;;;8.98;100.00;96547.43;1609373;88;24468;-89
2022/01/04 10:08:01;;;;;;;;;;;;;;;9.01;100.00;96544.52;1617589;87;20318;-93
2022/01/04 10:10:27;;;;;;;;;;;;;;;9.06;100.00;96526.16;1621681;86;25239;-94
2022/01/04 10:12:59;;;;;;;;;;;;;;;9.11;100.00;96523.15;1613589;88;21921;-94
2022/01/04 10:15:47;;;;;;;;;;;;;;;9.19;100.00;96519.31;1605491;88;26957;-92
2022/01/04 10:18:21;;;;;;;;;;;;;;;9.27;100.00;96519.91;1613776;87;24441;-91
2022/01/04 10:20:46;;;;;;;;;;;;;;;9.33;100.00;96516.72;1606806;88;20447;-93
2022/01/04 10:23:40;;;;;;;;;;;;;;;9.37;100.00;96498.00;1592959;88;24560;-93
2022/01/04 10:29:23;;;;;;;;;;;;;;;9.47;100.00;96513.11;1621110;87;26719;-93
2022/01/04 10:31:51;;;;;;;;;;;;;;;9.53;100.00;96514.31;1611964;88;24547;-92
2022/01/04 10:34:35;;;;;;;;;;;;;;;9.57;100.00;96513.04;1615987;88;20181;-94
2022/01/04 10:37:11;;;;;;;;;;;;;;;9.60;100.00;96512.77;1628602;88;24447;-94
2022/01/04 10:39:57;;;;;;;;;;;;;;;9.62;100.00;96514.24;1621591;88;21894;-93
2022/01/04 10:42:23;;;;;;;;;;;;;;;9.62;100.00;96507.71;1632494;85;26011;-93
2022/01/04 10:44:49;;;;;;;;;;;;;;;9.63;100.00;96515.89;1624864;86;24541;-93
2022/01/04 10:50:11;;;;;;;;;;;;;;;9.64;100.00;96510.19;1643989;86;24646;-92
2022/01/04 10:52:46;;;;;;;;;;;;;;;9.63;100.00;96500.70;1618608;86;22016;-93
2022/01/04 10:55:22;;;;;;;;;;;;;;;9.65;100.00;96505.30;1621495;87;26227;-91
2022/01/04 10:58:13;;;;;;;;;;;;;;;9.66;100.00;96505.13;1614108;88;24626;-92
2022/01/04 11:00:39;;;;;;;;;;;;;;;9.67;100.00;96513.79;1614218;89;20309;-92
2022/01/04 11:03:07;;;;;;;;;;;;;;;9.66;100.00;96506.92;1615694;89;20830;-93
2022/01/04 11:08:45;;;;;;;;;;;;;;;9.69;100.00;96507.12;1612132;88;26067;-92
2022/01/04 11:11:11;;;;;;;;;;;;;;;9.69;100.00;96488.84;1619657;88;24553;-93
2022/01/04 11:13:48;;;;;;;;;;;;;;;9.69;100.00;96490.14;1618053;88;20417;-92
2022/01/04 11:16:18;;;;;;;;;;;;;;;9.69;100.00;96492.27;1613978;88;24637;-93
2022/01/04 11:18:49;;;;;;;;;;;;;;;9.71;100.00;96482.99;1617365;88;22100;-92
2022/01/04 11:21:14;;;;;;;;;;;;;;;9.71;100.00;96475.95;1613979;88;26017;-86
2022/01/04 11:23:41;;;;;;;;;;;;;;;9.74;100.00;96471.75;1621128;86;24521;-85
2022/01/04 11:26:08;;;;;;;;;;;;;;;9.76;100.00;96463.77;1616121;87;20346;-86
2022/01/04 11:28:35;;;;;;;;;;;;;;;9.77;100.00;96464.91;1614171;88;24555;-85
2022/01/04 11:31:08;;;;;;;;;;;;;;;9.79;100.00;96466.07;1617634;88;22209;-85
2022/01/04 11:33:45;;;;;;;;;;;;;;;9.78;100.00;96458.72;1617417;86;26766;-86
2022/01/04 11:36:15;;;;;;;;;;;;;;;9.76;100.00;96455.45;1615276;88;24518;-86
2022/01/04 11:38:41;;;;;;;;;;;;;;;9.76;100.00;96446.31;1617460;87;20285;-86
2022/01/04 11:41:07;;;;;;;;;;;;;;;9.78;100.00;96434.38;1621122;88;24683;-85
2022/01/04 11:43:38;;;;;;;;;;;;;;;9.79;100.00;96425.58;1617225;87;21982;-85
2022/01/04 11:46:05;;;;;;;;;;;;;;;9.79;100.00;96426.41;1623767;86;26767;-85
2022/01/04 11:48:33;;;;;;;;;;;;;;;9.77;100.00;96420.98;1632176;86;24634;-85
2022/01/04 11:51:01;;;;;;;;;;;;;;;9.76;100.00;96427.20;1616832;87;20598;-85
2022/01/04 11:53:27;;;;;;;;;;;;;;;9.73;100.00;96429.62;1614467;88;24639;-86
2022/01/04 11:55:57;;;;;;;;;;;;;;;9.71;100.00;96412.47;1600657;87;21943;-88
2022/01/04 11:58:25;;;;;;;;;;;;;;;9.70;100.00;96406.91;1629468;86;26720;-88
2022/01/04 12:01:01;;;;;;;;;;;;;;;9.68;100.00;96402.31;1626488;86;24511;-88
2022/01/04 12:03:38;;;;;;;;;;;;;;;9.70;100.00;96396.46;1624435;86;20202;-88
2022/01/04 12:06:05;;;;;;;;;;;;;;;9.70;100.00;96394.67;1628358;86;24700;-89
2022/01/04 12:08:36;;;;;;;;;;;;;;;9.72;100.00;96376.22;1628329;86;22086;-89
2022/01/04 12:11:03;;;;;;;;;;;;;;;9.75;100.00;96377.23;1638735;86;26807;-90
2022/01/04 12:13:46;;;;;;;;;;;;;;;9.76;100.00;96369.73;1630553;86;24457;-89
2022/01/04 12:16:18;;;;;;;;;;;;;;;9.78;100.00;96361.25;1601109;88;20200;-89
2022/01/04 12:18:46;;;;;;;;;;;;;;;9.85;100.00;96355.75;1596865;88;24647;-89
2022/01/04 12:21:14;;;;;;;;;;;;;;;9.89;100.00;96347.94;1599455;88;22012;-88
2022/01/04 12:23:41;;;;;;;;;;;;;;;9.95;100.00;96341.61;1618699;87;25344;-89
2022/01/04 12:26:13;;;;;;;;;;;;;;;10.03;100.00;96335.14;1621956;86;24537;-89
2022/01/04 12:28:47;;;;;;;;;;;;;;;10.11;100.00;96325.68;1597327;87;20267;-88
2022/01/04 12:31:19;;;;;;;;;;;;;;;10.17;100.00;96312.84;1594107;87;24550;-89
2022/01/04 12:33:46;;;;;;;;;;;;;;;10.25;100.00;96301.62;1622470;87;22725;-88
2022/01/04 12:36:26;;;;;;;;;;;;;;;10.31;100.00;96312.24;1612756;87;25908;-88
2022/01/04 12:38:53;;;;;;;;;;;;;;;10.36;100.00;96302.64;1595907;89;24547;-87
2022/01/04 12:41:20;;;;;;;;;;;;;;;10.43;100.00;96293.99;1597083;88;20657;-88
2022/01/04 12:43:47;;;;;;;;;;;;;;;10.50;100.00;96292.88;1593903;89;24497;-88
2022/01/04 12:46:14;;;;;;;;;;;;;;;10.54;100.00;96286.34;1611179;87;22010;-89
2022/01/04 12:48:51;;;;;;;;;;;;;;;10.58;100.00;96280.33;1610635;86;25446;-89
2022/01/04 12:51:28;;;;;;;;;;;;;;;10.58;100.00;96269.86;1600202;88;24432;-88
2022/01/04 12:53:54;;;;;;;;;;;;;;;10.58;100.00;96256.30;1598410;89;20215;-88
2022/01/04 12:56:20;;;;;;;;;;;;;;;10.61;100.00;96258.58;1598948;89;25369;-88
2022/01/04 12:58:46;;;;;;;;;;;;;;;10.63;100.00;96243.55;1599563;88;21940;-88
2022/01/04 13:01:12;;;;;;;;;;;;;;;10.65;100.00;96243.37;1590616;88;26052;-89
2022/01/04 13:03:39;;;;;;;;;;;;;;;10.70;100.00;96238.47;1594020;89;24433;-88
2022/01/04 13:06:05;;;;;;;;;;;;;;;10.77;100.00;96236.86;1593196;89;20473;-87
2022/01/04 13:08:32;;;;;;;;;;;;;;;10.84;100.00;96236.55;1600698;88;24568;-86
2022/01/04 13:11:02;;;;;;;;;;;;;;;10.90;100.00;96225.43;1593677;88;21976;-86
2022/01/04 13:13:30;;;;;;;;;;;;;;;10.96;100.00;96221.34;1592659;88;26072;-86